Time;durP1;ratioP1;P1;durP2;ratioP2;P2;SDS_P1;SDS_P2;PMS_P1;PMS_P2;Temp;Humidity;BMP_temperature;BMP_pressure;BME280_temperature;BME280_humidity;BME280_pressure;Samples;Min_cycle;Max_cycle;Signal;HPM_P1;HPM_P2
2021/09/20 00:01:18;;;;;;;390.75;366.75;;;13.90;99.90;;;;;;5073896;28;20282;-76
2021/09/20 00:03:45;;;;;;;484.48;452.58;;;13.80;99.90;;;;;;5074681;28;20267;-76
2021/09/20 00:06:13;;;;;;;401.17;375.85;;;13.80;99.90;;;;;;5068139;28;20216;-77
2021/09/20 00:08:40;;;;;;;370.50;348.05;;;13.70;99.90;;;;;;5069094;28;20291;-76
2021/09/20 00:11:07;;;;;;;442.35;413.83;;;13.70;99.90;;;;;;5075823;28;20205;-76
2021/09/20 00:13:34;;;;;;;417.27;390.58;;;13.70;99.90;;;;;;5067593;28;20194;-76
2021/09/20 00:16:01;;;;;;;436.92;408.10;;;13.80;99.90;;;;;;5074522;28;20691;-76
2021/09/20 00:18:28;;;;;;;362.77;340.13;;;13.80;99.90;;;;;;5073486;28;20201;-76
2021/09/20 00:20:55;;;;;;;447.42;418.30;;;13.80;99.90;;;;;;5070392;28;20205;-77
2021/09/20 00:23:23;;;;;;;392.25;367.98;;;13.80;99.90;;;;;;5067180;28;20193;-76
2021/09/20 00:25:50;;;;;;;133.80;126.85;;;13.70;99.90;;;;;;5078524;28;20570;-77
2021/09/20 00:28:17;;;;;;;364.20;341.92;;;13.70;99.90;;;;;;5070893;28;20228;-76
2021/09/20 00:30:44;;;;;;;392.92;368.20;;;13.60;99.90;;;;;;5081660;28;20205;-77
2021/09/20 00:33:11;;;;;;;438.40;410.17;;;13.60;99.90;;;;;;5071276;28;20206;-76
2021/09/20 00:35:38;;;;;;;415.55;388.77;;;13.60;99.90;;;;;;5067628;28;20197;-77
2021/09/20 00:38:05;;;;;;;306.05;288.25;;;13.50;99.90;;;;;;5066761;28;20206;-77
2021/09/20 00:40:34;;;;;;;411.60;383.95;;;13.50;99.90;;;;;;5067039;28;20261;-77
2021/09/20 00:43:01;;;;;;;439.23;410.77;;;13.40;99.90;;;;;;5067367;28;20201;-76
2021/09/20 00:45:28;;;;;;;396.48;371.52;;;13.40;99.90;;;;;;5073533;28;20668;-77
2021/09/20 00:47:55;;;;;;;441.38;412.15;;;13.40;99.90;;;;;;5067075;28;20225;-77
2021/09/20 00:50:22;;;;;;;426.45;399.08;;;13.40;99.90;;;;;;5067294;28;20205;-77
2021/09/20 00:52:49;;;;;;;178.18;168.93;;;13.30;99.90;;;;;;5067374;28;20195;-77
2021/09/20 00:55:17;;;;;;;424.92;397.35;;;13.30;99.90;;;;;;5066826;28;20223;-76
2021/09/20 00:57:47;;;;;;;430.88;401.58;;;13.20;99.90;;;;;;5073417;28;20219;-76
2021/09/20 01:00:15;;;;;;;419.50;392.13;;;13.20;99.90;;;;;;5067617;28;20201;-76
2021/09/20 01:02:42;;;;;;;433.23;405.10;;;13.10;99.90;;;;;;5071253;28;20238;-76
2021/09/20 01:05:11;;;;;;;444.88;415.35;;;13.10;99.90;;;;;;5066707;28;20201;-76
2021/09/20 01:07:38;;;;;;;436.27;406.70;;;13.10;99.90;;;;;;5076929;28;20661;-76
2021/09/20 01:10:08;;;;;;;473.38;442.23;;;13.00;99.90;;;;;;5070619;28;20200;-76
2021/09/20 01:12:35;;;;;;;437.23;408.40;;;13.00;99.90;;;;;;5067087;28;20235;-76
2021/09/20 01:15:06;;;;;;;449.92;420.38;;;12.90;99.90;;;;;;5066196;28;21704;-76
2021/09/20 01:17:32;;;;;;;432.52;403.15;;;12.90;99.90;;;;;;5067012;28;20238;-76
2021/09/20 01:20:00;;;;;;;442.23;411.98;;;12.90;99.90;;;;;;5066235;28;20221;-76
2021/09/20 01:22:27;;;;;;;428.52;399.95;;;12.80;99.90;;;;;;5072060;28;20212;-76
2021/09/20 01:24:56;;;;;;;472.30;440.85;;;12.70;99.90;;;;;;5066390;28;20247;-76
2021/09/20 01:27:23;;;;;;;441.88;413.00;;;12.70;99.90;;;;;;5066494;28;20230;-76
2021/09/20 01:29:50;;;;;;;446.35;415.77;;;12.70;99.90;;;;;;5066596;28;20574;-77
2021/09/20 01:32:17;;;;;;;446.55;416.05;;;12.70;99.90;;;;;;5066204;28;20195;-77
2021/09/20 01:34:44;;;;;;;442.17;411.70;;;12.70;99.90;;;;;;5066392;28;20205;-76
2021/09/20 01:37:11;;;;;;;454.05;424.40;;;12.80;99.90;;;;;;5069412;28;20205;-76
2021/09/20 01:39:39;;;;;;;392.95;368.02;;;12.80;99.90;;;;;;5066203;28;20206;-76
2021/09/20 01:42:09;;;;;;;439.88;410.65;;;12.80;99.90;;;;;;5074079;28;20223;-76
2021/09/20 01:44:36;;;;;;;446.98;417.23;;;12.80;99.90;;;;;;5070898;28;20207;-77
2021/09/20 01:47:04;;;;;;;373.60;348.98;;;12.80;99.90;;;;;;5072324;28;20211;-76
2021/09/20 01:49:31;;;;;;;446.02;416.25;;;12.80;99.90;;;;;;5070826;28;20694;-76
2021/09/20 01:51:58;;;;;;;445.35;415.45;;;12.80;99.90;;;;;;5065876;28;20201;-76
2021/09/20 01:54:25;;;;;;;464.98;433.75;;;12.80;99.90;;;;;;5066438;28;20264;-78
2021/09/20 01:56:52;;;;;;;458.05;427.55;;;12.90;99.90;;;;;;5065743;28;20228;-76
2021/09/20 01:59:21;;;;;;;394.40;367.67;;;12.90;99.90;;;;;;5072736;28;20201;-76
2021/09/20 02:01:48;;;;;;;453.23;422.90;;;12.90;99.90;;;;;;5069237;28;20210;-76
2021/09/20 02:04:16;;;;;;;416.98;389.50;;;12.90;99.90;;;;;;5066968;28;20290;-76
2021/09/20 02:06:43;;;;;;;439.38;409.55;;;12.90;99.90;;;;;;5068887;28;20201;-76
2021/09/20 02:09:11;;;;;;;432.63;403.63;;;12.80;99.90;;;;;;5065657;28;20677;-76
2021/09/20 02:11:39;;;;;;;388.40;362.08;;;12.80;99.90;;;;;;5066121;28;20210;-76
2021/09/20 02:14:06;;;;;;;410.88;384.00;;;12.70;99.90;;;;;;5065687;28;20200;-77
2021/09/20 02:16:34;;;;;;;436.75;407.75;;;12.70;99.90;;;;;;5065892;28;20746;-76
2021/09/20 02:19:02;;;;;;;422.65;394.55;;;12.70;99.90;;;;;;5071327;28;20688;-76
2021/09/20 02:21:29;;;;;;;433.63;404.58;;;12.70;99.90;;;;;;5071602;28;20201;-76
2021/09/20 02:23:56;;;;;;;399.50;373.38;;;12.70;99.90;;;;;;5070923;28;20640;-76
2021/09/20 02:26:23;;;;;;;434.70;406.13;;;12.70;99.90;;;;;;5066063;28;20199;-77
2021/09/20 02:28:50;;;;;;;394.77;368.00;;;12.70;99.90;;;;;;5066371;28;20247;-76
2021/09/20 02:31:17;;;;;;;372.77;348.15;;;12.70;99.90;;;;;;5065506;28;20699;-77
2021/09/20 02:33:45;;;;;;;440.27;410.80;;;12.70;99.90;;;;;;5065396;28;20201;-76
2021/09/20 02:36:12;;;;;;;440.25;411.30;;;12.80;99.90;;;;;;5072001;28;20238;-77
2021/09/20 02:38:39;;;;;;;442.00;412.33;;;12.80;99.90;;;;;;5065648;28;20210;-76
2021/09/20 02:41:07;;;;;;;414.75;386.17;;;12.80;99.90;;;;;;5065820;28;20243;-77
2021/09/20 02:43:35;;;;;;;439.50;409.50;;;12.80;99.90;;;;;;5065237;28;20200;-76
2021/09/20 02:46:02;;;;;;;441.27;411.67;;;12.80;99.90;;;;;;5068770;28;20288;-77
2021/09/20 02:48:29;;;;;;;425.27;397.23;;;12.80;99.90;;;;;;5070093;28;20255;-76
2021/09/20 02:50:57;;;;;;;464.20;432.55;;;12.70;99.90;;;;;;5072905;28;20209;-76
2021/09/20 02:53:24;;;;;;;437.92;408.52;;;12.70;99.90;;;;;;5075731;28;20196;-76
2021/09/20 02:55:52;;;;;;;450.63;420.65;;;12.70;99.90;;;;;;5075593;28;20621;-76
2021/09/20 02:58:19;;;;;;;452.15;421.67;;;12.80;99.90;;;;;;5074446;28;20196;-76
2021/09/20 03:00:45;;;;;;;450.40;419.90;;;12.80;99.90;;;;;;5069583;28;20230;-76
2021/09/20 03:03:12;;;;;;;421.92;393.02;;;12.90;99.90;;;;;;5069180;28;20315;-76
2021/09/20 03:05:39;;;;;;;418.52;389.67;;;13.00;99.90;;;;;;5069393;28;20201;-76
2021/09/20 03:08:08;;;;;;;413.73;385.27;;;12.90;99.90;;;;;;5078033;28;20279;-76
2021/09/20 03:10:35;;;;;;;414.70;385.67;;;12.80;99.90;;;;;;5069086;28;20560;-77
2021/09/20 03:13:04;;;;;;;401.90;374.50;;;12.80;99.90;;;;;;5075802;28;20267;-76
2021/09/20 03:15:31;;;;;;;426.88;397.73;;;12.80;99.90;;;;;;5068832;28;20196;-76
2021/09/20 03:17:58;;;;;;;427.17;399.10;;;12.80;99.90;;;;;;5068734;28;20270;-77
2021/09/20 03:20:25;;;;;;;445.08;415.65;;;12.80;99.90;;;;;;5068811;28;20311;-77
2021/09/20 03:22:52;;;;;;;440.95;411.48;;;12.90;99.90;;;;;;5069188;28;20289;-76
2021/09/20 03:25:21;;;;;;;423.10;394.08;;;12.80;99.90;;;;;;5068216;28;20198;-76
2021/09/20 03:27:48;;;;;;;410.83;383.13;;;12.80;99.90;;;;;;5069513;28;20205;-76
2021/09/20 03:30:17;;;;;;;431.67;403.30;;;12.90;99.90;;;;;;5068740;28;20193;-76
2021/09/20 03:32:45;;;;;;;395.23;368.15;;;12.90;99.90;;;;;;5076776;28;20202;-76
2021/09/20 03:35:14;;;;;;;399.98;374.10;;;12.90;99.90;;;;;;5069573;28;20217;-76
2021/09/20 03:37:42;;;;;;;423.65;395.42;;;12.90;99.90;;;;;;5075081;28;20215;-76
2021/09/20 03:40:10;;;;;;;417.13;389.23;;;12.90;99.90;;;;;;5075940;28;20273;-76
2021/09/20 03:42:38;;;;;;;192.52;181.68;;;12.90;99.90;;;;;;5073779;28;20203;-76
2021/09/20 03:45:06;;;;;;;412.50;385.70;;;12.90;99.90;;;;;;5075937;28;20250;-76
2021/09/20 03:47:33;;;;;;;432.88;404.63;;;12.90;99.90;;;;;;5067989;28;20236;-76
2021/09/20 03:50:00;;;;;;;419.77;390.65;;;13.00;99.90;;;;;;5068228;28;20225;-76
2021/09/20 03:52:27;;;;;;;370.17;346.50;;;13.10;99.90;;;;;;5069008;28;20213;-76
2021/09/20 03:54:54;;;;;;;364.67;342.05;;;13.10;99.90;;;;;;5050090;28;20206;-76
2021/09/20 03:57:21;;;;;;;380.23;355.25;;;13.20;99.90;;;;;;5073769;28;20193;-76
2021/09/20 03:59:49;;;;;;;409.95;382.98;;;13.30;99.90;;;;;;5067604;28;20214;-76
2021/09/20 04:02:16;;;;;;;333.80;313.52;;;13.30;99.90;;;;;;5070883;28;20251;-76
2021/09/20 04:04:43;;;;;;;292.83;275.23;;;13.30;99.90;;;;;;5075753;28;20238;-76
2021/09/20 04:07:12;;;;;;;362.10;339.83;;;13.40;99.90;;;;;;5061143;28;20204;-77
2021/09/20 04:09:41;;;;;;;355.92;333.80;;;13.40;99.90;;;;;;5072000;28;20228;-77
2021/09/20 04:12:09;;;;;;;212.57;200.73;;;13.30;99.90;;;;;;5068326;28;20269;-77
2021/09/20 04:14:36;;;;;;;188.48;178.13;;;13.40;99.90;;;;;;5067528;28;20284;-76
2021/09/20 04:17:05;;;;;;;243.25;229.50;;;13.40;99.90;;;;;;5068225;28;20227;-77
2021/09/20 04:19:32;;;;;;;208.75;197.32;;;13.40;99.90;;;;;;5068317;28;20559;-77
2021/09/20 04:21:59;;;;;;;196.13;185.57;;;13.40;99.90;;;;;;5069075;28;20275;-77
2021/09/20 04:24:26;;;;;;;286.75;269.40;;;13.30;99.90;;;;;;5072920;28;20201;-77
2021/09/20 04:26:53;;;;;;;221.82;209.73;;;13.30;99.90;;;;;;5068465;28;20205;-77
2021/09/20 04:29:20;;;;;;;223.93;211.25;;;13.20;99.90;;;;;;5067717;28;20277;-77
2021/09/20 04:31:47;;;;;;;400.92;374.20;;;13.20;99.90;;;;;;5067020;28;20540;-76
2021/09/20 04:34:15;;;;;;;237.88;224.75;;;13.30;99.90;;;;;;5067317;28;20201;-75
2021/09/20 04:36:42;;;;;;;388.05;363.08;;;13.20;99.90;;;;;;5066899;28;20203;-75
2021/09/20 04:39:09;;;;;;;232.07;218.95;;;13.20;99.90;;;;;;5071304;28;20195;-75
2021/09/20 04:41:37;;;;;;;426.98;398.95;;;13.20;99.90;;;;;;5072342;28;20205;-75
2021/09/20 04:44:04;;;;;;;207.52;196.10;;;13.20;99.90;;;;;;5077510;28;20200;-75
2021/09/20 04:46:31;;;;;;;229.45;216.82;;;13.20;99.90;;;;;;5068238;28;20190;-75
2021/09/20 04:48:58;;;;;;;185.70;175.27;;;13.30;99.90;;;;;;5067222;28;20278;-75
2021/09/20 04:51:26;;;;;;;213.65;201.93;;;13.20;99.90;;;;;;5073600;28;20210;-75
2021/09/20 04:53:53;;;;;;;194.52;183.63;;;13.20;99.90;;;;;;5067462;28;20256;-76
2021/09/20 04:56:20;;;;;;;204.65;193.70;;;13.20;99.90;;;;;;5073605;28;20207;-75
2021/09/20 04:58:47;;;;;;;180.00;169.18;;;13.20;99.90;;;;;;5071809;28;20197;-75
2021/09/20 05:01:14;;;;;;;183.80;174.00;;;13.20;99.90;;;;;;5066657;28;20251;-75
2021/09/20 05:03:41;;;;;;;368.13;344.95;;;13.30;99.90;;;;;;5070617;28;20224;-75
2021/09/20 05:06:08;;;;;;;182.20;172.32;;;13.30;99.90;;;;;;5068330;28;20227;-75
2021/09/20 05:08:36;;;;;;;212.20;200.20;;;13.30;99.90;;;;;;5066956;28;20235;-75
2021/09/20 05:11:03;;;;;;;200.27;189.55;;;13.30;99.90;;;;;;5079224;28;20258;-75
2021/09/20 05:13:30;;;;;;;251.40;237.25;;;13.30;99.90;;;;;;5069900;28;20223;-76
2021/09/20 05:15:57;;;;;;;207.38;196.18;;;13.30;99.90;;;;;;5065981;28;20278;-76
2021/09/20 05:18:23;;;;;;;223.05;210.68;;;13.40;99.90;;;;;;5070429;28;20194;-75
2021/09/20 05:20:50;;;;;;;399.50;374.15;;;13.40;99.90;;;;;;5073985;28;20474;-75
2021/09/20 05:23:17;;;;;;;256.42;241.93;;;13.50;99.90;;;;;;5067723;28;20226;-75
2021/09/20 05:25:46;;;;;;;262.23;247.55;;;13.50;99.90;;;;;;5078520;28;20194;-75
2021/09/20 05:28:13;;;;;;;394.17;368.77;;;13.40;99.90;;;;;;5073097;28;20207;-75
2021/09/20 05:30:40;;;;;;;197.00;186.35;;;13.40;99.90;;;;;;5067070;28;20273;-75
2021/09/20 05:33:06;;;;;;;203.93;192.50;;;13.40;99.90;;;;;;5067054;28;20279;-75
2021/09/20 05:35:33;;;;;;;231.23;218.25;;;13.40;99.90;;;;;;5071386;28;20197;-75
2021/09/20 05:38:00;;;;;;;243.00;229.32;;;13.40;99.90;;;;;;5068675;28;20200;-75
2021/09/20 05:40:27;;;;;;;394.35;369.38;;;13.40;99.90;;;;;;5069510;28;20585;-75
2021/09/20 05:42:58;;;;;;;213.15;201.30;;;13.40;99.90;;;;;;5072397;28;20263;-76
2021/09/20 05:45:26;;;;;;;215.10;203.02;;;13.40;99.90;;;;;;5066438;28;20205;-75
2021/09/20 05:47:53;;;;;;;220.98;208.88;;;13.40;99.90;;;;;;5066804;28;20230;-75
2021/09/20 05:50:22;;;;;;;230.25;217.07;;;13.40;99.90;;;;;;5074802;28;20247;-75
2021/09/20 05:52:50;;;;;;;240.88;226.63;;;13.30;99.90;;;;;;5067994;28;20212;-75
2021/09/20 05:55:16;;;;;;;191.82;181.38;;;13.30;99.90;;;;;;5072065;28;20612;-75
2021/09/20 05:57:43;;;;;;;222.35;209.77;;;13.20;99.90;;;;;;5073093;28;20197;-75
2021/09/20 06:00:13;;;;;;;206.80;195.43;;;13.30;99.90;;;;;;5066965;28;20235;-75
2021/09/20 06:02:41;;;;;;;219.27;207.35;;;13.30;99.90;;;;;;5066349;28;20227;-75
2021/09/20 06:05:09;;;;;;;228.77;215.90;;;13.30;99.90;;;;;;5070339;28;20239;-75
2021/09/20 06:07:36;;;;;;;265.17;249.65;;;13.40;99.90;;;;;;5066291;28;20236;-75
2021/09/20 06:10:05;;;;;;;235.20;221.95;;;13.40;99.90;;;;;;5066195;28;20225;-75
2021/09/20 06:12:32;;;;;;;239.23;225.60;;;13.40;99.90;;;;;;5072304;28;20206;-75
2021/09/20 06:14:59;;;;;;;216.27;204.70;;;13.30;99.90;;;;;;5072913;28;20205;-75
2021/09/20 06:17:28;;;;;;;228.25;215.77;;;13.40;99.90;;;;;;5065985;28;20258;-75
2021/09/20 06:19:56;;;;;;;405.70;378.77;;;13.50;99.90;;;;;;5067562;28;20197;-75
2021/09/20 06:22:22;;;;;;;202.13;190.80;;;13.50;99.90;;;;;;5069984;28;20635;-75
2021/09/20 06:24:50;;;;;;;181.45;171.63;;;13.40;99.90;;;;;;5069975;28;20237;-75
2021/09/20 06:27:17;;;;;;;192.80;182.38;;;13.40;99.90;;;;;;5075801;28;20200;-75
2021/09/20 06:29:44;;;;;;;200.32;189.73;;;13.40;99.90;;;;;;5078373;28;20233;-75
2021/09/20 06:32:10;;;;;;;180.10;170.60;;;13.40;99.90;;;;;;5080175;28;20196;-75
2021/09/20 06:34:39;;;;;;;194.48;184.02;;;13.30;99.90;;;;;;5071054;28;20206;-75
2021/09/20 06:37:06;;;;;;;212.35;201.02;;;13.40;99.90;;;;;;5072776;28;20205;-75
2021/09/20 06:39:33;;;;;;;231.20;218.65;;;13.40;99.90;;;;;;5076563;28;20272;-75
2021/09/20 06:42:02;;;;;;;215.18;203.02;;;13.50;99.90;;;;;;5069412;28;20204;-75
2021/09/20 06:44:29;;;;;;;240.82;227.57;;;13.50;99.90;;;;;;5069329;28;20214;-75
2021/09/20 06:46:56;;;;;;;206.25;194.95;;;13.50;99.90;;;;;;5069693;28;20225;-75
2021/09/20 06:49:23;;;;;;;185.73;175.80;;;13.50;99.90;;;;;;5070003;28;20221;-75
2021/09/20 06:51:52;;;;;;;229.05;216.50;;;13.50;99.90;;;;;;5069610;28;20197;-75
2021/09/20 06:54:21;;;;;;;297.95;279.75;;;13.50;99.90;;;;;;5069371;28;20225;-75
2021/09/20 06:56:48;;;;;;;232.63;219.80;;;13.50;99.90;;;;;;5069179;28;20274;-75
2021/09/20 06:59:15;;;;;;;243.57;229.93;;;13.50;99.90;;;;;;5068909;28;20229;-75
2021/09/20 07:01:43;;;;;;;180.45;170.90;;;13.50;99.90;;;;;;5069341;28;20270;-75
2021/09/20 07:04:10;;;;;;;179.05;169.52;;;13.50;99.90;;;;;;5068833;28;20248;-75
2021/09/20 07:06:37;;;;;;;197.95;187.43;;;13.50;99.90;;;;;;5069175;28;20197;-75
2021/09/20 07:09:05;;;;;;;176.13;166.38;;;13.60;99.90;;;;;;5068753;28;20901;-75
2021/09/20 07:11:32;;;;;;;202.25;191.50;;;13.60;99.90;;;;;;5072996;28;20227;-75
2021/09/20 07:13:59;;;;;;;181.38;171.90;;;13.60;99.90;;;;;;5069138;28;20208;-75
2021/09/20 07:16:26;;;;;;;207.82;196.25;;;13.60;99.90;;;;;;5072648;28;20199;-75
2021/09/20 07:18:53;;;;;;;152.73;144.68;;;13.60;99.90;;;;;;5072817;28;20251;-75
2021/09/20 07:21:23;;;;;;;176.18;167.13;;;13.60;99.90;;;;;;5069656;28;20201;-75
2021/09/20 07:23:50;;;;;;;173.73;164.43;;;13.70;99.90;;;;;;5070447;28;20206;-75
2021/09/20 07:26:18;;;;;;;176.05;166.95;;;13.80;99.90;;;;;;5070649;28;20201;-75
2021/09/20 07:28:46;;;;;;;221.00;209.23;;;13.80;99.90;;;;;;5072168;28;20611;-75
2021/09/20 07:31:13;;;;;;;186.93;176.95;;;13.90;99.90;;;;;;5074026;28;20372;-75
2021/09/20 07:33:40;;;;;;;174.27;164.98;;;13.90;99.90;;;;;;5073192;28;20207;-75
2021/09/20 07:36:07;;;;;;;183.45;174.00;;;14.00;99.90;;;;;;5068366;28;20202;-75
2021/09/20 07:38:35;;;;;;;158.70;150.20;;;14.00;99.90;;;;;;5072063;28;20203;-75
2021/09/20 07:41:02;;;;;;;152.50;144.73;;;14.10;99.90;;;;;;5069033;28;20251;-75
2021/09/20 07:43:30;;;;;;;154.02;146.20;;;14.20;99.90;;;;;;5076933;28;20201;-75
2021/09/20 07:45:57;;;;;;;160.00;151.68;;;14.30;99.90;;;;;;5081842;28;20206;-75
2021/09/20 07:48:24;;;;;;;157.25;149.30;;;14.30;99.90;;;;;;5068428;28;20207;-75
2021/09/20 07:50:52;;;;;;;177.77;168.38;;;14.40;99.90;;;;;;5068065;28;20254;-75
2021/09/20 07:53:20;;;;;;;198.43;187.82;;;14.40;99.90;;;;;;5067996;28;20233;-75
2021/09/20 07:55:47;;;;;;;174.85;165.90;;;14.30;99.90;;;;;;5071240;28;20208;-75
2021/09/20 07:58:15;;;;;;;267.50;252.65;;;14.40;99.90;;;;;;5070897;28;20199;-75
2021/09/20 08:00:44;;;;;;;177.77;168.75;;;14.50;99.90;;;;;;5071117;28;20201;-75
2021/09/20 08:03:11;;;;;;;167.55;158.80;;;14.50;99.90;;;;;;5068198;28;20235;-75
2021/09/20 08:05:41;;;;;;;163.18;154.65;;;14.60;99.90;;;;;;5072252;28;20273;-75
2021/09/20 08:08:09;;;;;;;197.43;187.30;;;14.80;99.90;;;;;;5068125;28;20194;-75
2021/09/20 08:10:36;;;;;;;164.00;155.45;;;14.80;99.90;;;;;;5071627;28;20228;-75
2021/09/20 08:13:03;;;;;;;193.57;183.32;;;14.80;99.90;;;;;;5068590;28;20257;-75
2021/09/20 08:15:31;;;;;;;184.90;175.15;;;14.80;99.90;;;;;;5067689;28;20556;-75
2021/09/20 08:18:00;;;;;;;172.88;164.05;;;14.80;99.90;;;;;;5071979;28;20207;-75
2021/09/20 08:20:28;;;;;;;199.70;189.20;;;14.80;99.90;;;;;;5069675;28;20276;-75
2021/09/20 08:22:54;;;;;;;226.82;214.73;;;14.80;99.90;;;;;;5067814;28;20252;-75
2021/09/20 08:25:24;;;;;;;212.57;201.43;;;14.70;99.90;;;;;;5068069;28;20215;-75
2021/09/20 08:27:52;;;;;;;225.23;213.25;;;14.70;99.90;;;;;;5067185;28;20266;-75
2021/09/20 08:30:20;;;;;;;200.82;190.45;;;14.70;99.90;;;;;;5070172;28;20226;-75
2021/09/20 08:32:47;;;;;;;199.13;188.80;;;14.70;99.90;;;;;;5070112;28;20207;-75
2021/09/20 08:35:16;;;;;;;194.93;184.85;;;14.80;99.90;;;;;;5067710;28;20220;-75
2021/09/20 08:37:43;;;;;;;171.82;162.77;;;14.90;99.90;;;;;;5067182;28;20202;-75
2021/09/20 08:40:11;;;;;;;202.43;191.68;;;14.90;99.90;;;;;;5067675;28;20263;-75
2021/09/20 08:42:39;;;;;;;222.85;210.95;;;14.90;99.90;;;;;;5067070;28;20201;-75
2021/09/20 08:45:08;;;;;;;177.52;168.38;;;15.00;99.90;;;;;;5066816;28;20210;-75
2021/09/20 08:47:40;;;;;;;177.95;168.90;;;15.00;99.90;;;;;;5067382;28;20596;-75
2021/09/20 08:50:07;;;;;;;219.88;208.02;;;15.10;99.90;;;;;;5071722;28;20693;-75
2021/09/20 08:52:36;;;;;;;202.63;191.52;;;15.10;99.90;;;;;;5067396;28;20214;-75
2021/09/20 08:55:03;;;;;;;196.27;185.85;;;15.10;99.90;;;;;;5072385;28;20595;-75
2021/09/20 08:57:30;;;;;;;218.38;206.65;;;15.10;99.90;;;;;;5068158;28;20256;-75
2021/09/20 08:59:57;;;;;;;205.52;194.68;;;15.30;99.90;;;;;;5068909;28;20203;-75
2021/09/20 09:02:25;;;;;;;171.57;162.45;;;15.40;99.90;;;;;;5078334;28;20211;-75
2021/09/20 09:04:52;;;;;;;184.98;175.43;;;15.40;99.90;;;;;;5066606;28;20248;-75
2021/09/20 09:07:21;;;;;;;181.77;172.50;;;15.30;99.90;;;;;;5066857;28;20207;-74
2021/09/20 09:09:51;;;;;;;196.55;186.20;;;15.30;99.90;;;;;;5067158;28;20232;-74
2021/09/20 09:12:20;;;;;;;201.90;191.32;;;15.30;99.90;;;;;;5076954;28;20731;-74
2021/09/20 09:14:49;;;;;;;193.82;183.68;;;15.40;99.90;;;;;;5066748;28;20354;-74
2021/09/20 09:17:20;;;;;;;185.68;176.15;;;15.40;99.90;;;;;;5066743;28;20206;-74
2021/09/20 09:19:52;;;;;;;204.15;193.23;;;15.50;99.90;;;;;;5082842;28;20255;-75
2021/09/20 09:22:19;;;;;;;216.27;204.65;;;15.70;99.90;;;;;;5073349;28;20230;-75
2021/09/20 09:25:04;;;;;;;167.15;158.52;;;15.80;99.90;;;;;;5070163;28;20792;-74
2021/09/20 09:27:32;;;;;;;200.82;190.43;;;15.90;99.90;;;;;;5066631;28;20229;-74
2021/09/20 09:30:09;;;;;;;177.20;167.85;;;16.10;99.90;;;;;;5066608;28;20238;-74
2021/09/20 09:32:36;;;;;;;149.23;141.68;;;16.20;99.90;;;;;;5065741;28;20253;-74
2021/09/20 09:35:06;;;;;;;163.50;155.23;;;16.30;99.90;;;;;;5071789;28;20256;-74
2021/09/20 09:37:34;;;;;;;174.65;165.85;;;16.40;99.90;;;;;;5067218;28;20280;-74
2021/09/20 09:40:15;;;;;;;184.40;174.80;;;16.50;99.90;;;;;;5065619;28;20871;-74
2021/09/20 09:42:43;;;;;;;179.40;170.35;;;16.70;99.90;;;;;;5065602;28;20203;-74
2021/09/20 09:45:26;;;;;;;160.30;151.85;;;16.80;99.90;;;;;;5072306;28;20675;-74
2021/09/20 09:48:10;;;;;;;194.27;183.80;;;16.80;99.90;;;;;;5066321;28;20237;-74
2021/09/20 09:50:41;;;;;;;185.40;176.02;;;16.90;99.90;;;;;;5066507;28;20280;-75
2021/09/20 09:53:21;;;;;;;145.85;138.60;;;17.00;99.90;;;;;;5066326;28;20200;-74
2021/09/20 09:55:49;;;;;;;149.30;141.93;;;17.00;99.90;;;;;;5066619;28;20204;-74
2021/09/20 09:58:17;;;;;;;140.75;133.52;;;16.90;99.90;;;;;;5069353;28;20199;-74
2021/09/20 10:00:44;;;;;;;186.25;176.07;;;17.00;99.90;;;;;;5070336;28;20203;-75
2021/09/20 10:11:31;;;;;;;138.80;131.55;;;17.30;99.90;;;;;;5081590;28;20202;-74
2021/09/20 10:13:59;;;;;;;130.90;124.57;;;17.30;99.90;;;;;;5094523;28;20207;-74
2021/09/20 10:16:26;;;;;;;158.73;150.88;;;17.50;99.90;;;;;;5084748;28;20200;-74
2021/09/20 10:18:53;;;;;;;167.10;158.32;;;17.60;99.90;;;;;;5093719;28;20620;-74
2021/09/20 10:21:20;;;;;;;171.73;163.10;;;17.60;99.90;;;;;;5088770;28;20199;-74
2021/09/20 10:23:48;;;;;;;153.77;146.27;;;17.70;99.90;;;;;;5092458;28;20227;-74
2021/09/20 10:26:16;;;;;;;133.73;127.30;;;17.60;99.90;;;;;;5088928;28;20196;-74
2021/09/20 10:28:48;;;;;;;152.60;145.18;;;17.70;99.90;;;;;;5098080;28;20203;-74
2021/09/20 10:31:16;;;;;;;132.55;126.15;;;17.80;99.90;;;;;;5087594;28;20224;-74
2021/09/20 10:33:43;;;;;;;130.60;124.15;;;18.00;99.90;;;;;;5088372;28;20210;-74
2021/09/20 10:36:10;;;;;;;166.27;158.13;;;18.30;99.90;;;;;;5087274;28;20233;-74
2021/09/20 10:38:37;;;;;;;207.77;197.00;;;18.40;99.90;;;;;;5090952;28;20198;-74
2021/09/20 10:41:10;;;;;;;231.05;218.38;;;18.50;99.90;;;;;;5087540;28;20200;-74
2021/09/20 10:43:38;;;;;;;147.88;140.63;;;18.70;99.90;;;;;;5093523;28;20251;-74
2021/09/20 10:46:19;;;;;;;140.43;133.23;;;18.80;99.90;;;;;;5088914;28;20254;-74
2021/09/20 10:48:50;;;;;;;142.57;135.55;;;18.60;99.90;;;;;;5097401;28;20202;-74
2021/09/20 10:51:26;;;;;;;92.88;88.40;;;18.40;99.90;;;;;;5082838;28;20266;-74
2021/09/20 10:54:13;;;;;;;134.30;127.88;;;18.30;99.90;;;;;;5091766;28;20280;-75
2021/09/20 10:56:40;;;;;;;133.07;126.68;;;18.00;99.90;;;;;;5084617;28;20207;-74
2021/09/20 10:59:35;;;;;;;137.73;131.02;;;18.00;99.90;;;;;;5085539;28;20208;-74
2021/09/20 11:02:20;;;;;;;113.80;108.05;;;18.20;99.90;;;;;;5077115;28;20565;-74
2021/09/20 11:04:47;;;;;;;178.93;169.98;;;18.30;99.90;;;;;;5069513;28;20572;-74
2021/09/20 11:07:20;;;;;;;146.60;139.35;;;18.30;99.90;;;;;;5062593;28;20212;-75
2021/09/20 11:09:51;;;;;;;157.43;149.45;;;18.30;99.90;;;;;;5061166;28;20254;-75
2021/09/20 11:12:21;;;;;;;132.10;125.85;;;18.30;99.90;;;;;;5065309;28;20196;-74
2021/09/20 11:15:00;;;;;;;159.55;151.75;;;18.30;99.90;;;;;;5057922;28;20561;-74
2021/09/20 11:17:41;;;;;;;148.27;141.13;;;18.40;99.90;;;;;;5064788;28;20197;-74
2021/09/20 11:20:25;;;;;;;116.82;111.18;;;18.30;99.90;;;;;;5058727;28;20262;-74
2021/09/20 11:23:28;;;;;;;124.25;118.20;;;18.40;99.90;;;;;;5060972;28;20216;-74
2021/09/20 11:26:23;;;;;;;169.90;161.55;;;18.30;99.90;;;;;;5052603;28;20227;-75
2021/09/20 11:28:53;;;;;;;129.65;123.40;;;18.10;99.90;;;;;;5058838;28;20213;-74
2021/09/20 11:31:26;;;;;;;129.10;122.85;;;18.00;99.90;;;;;;5052371;28;20202;-74
2021/09/20 11:33:54;;;;;;;179.32;170.30;;;17.80;99.90;;;;;;5053827;28;20238;-75
2021/09/20 11:36:29;;;;;;;118.43;112.68;;;17.90;99.90;;;;;;5056039;28;20213;-74
2021/09/20 11:39:14;;;;;;;116.47;111.03;;;18.00;99.90;;;;;;5046744;28;20243;-73
2021/09/20 11:41:45;;;;;;;173.38;164.85;;;18.00;99.90;;;;;;5044439;28;20206;-74
2021/09/20 11:44:14;;;;;;;167.85;159.55;;;18.00;99.90;;;;;;5060374;28;20315;-74
2021/09/20 11:46:41;;;;;;;150.85;143.48;;;18.00;99.90;;;;;;5063199;28;20279;-74
2021/09/20 11:49:16;;;;;;;142.30;135.35;;;17.90;99.90;;;;;;5056309;28;20649;-74
2021/09/20 11:51:43;;;;;;;121.95;115.80;;;18.00;99.90;;;;;;5054860;28;20673;-74
2021/09/20 11:54:28;;;;;;;115.78;109.97;;;18.00;99.90;;;;;;5051722;28;20732;-74
2021/09/20 11:56:55;;;;;;;152.63;144.98;;;18.00;99.90;;;;;;5044643;28;20207;-74
2021/09/20 11:59:32;;;;;;;135.77;129.07;;;18.00;99.90;;;;;;5056819;28;20210;-74
2021/09/20 12:02:00;;;;;;;140.95;134.18;;;18.00;99.90;;;;;;5053836;28;20235;-74
2021/09/20 12:04:46;;;;;;;150.30;142.95;;;17.90;99.90;;;;;;5071919;28;20233;-74
2021/09/20 12:07:26;;;;;;;147.75;140.32;;;17.90;99.90;;;;;;5066787;28;20743;-74
2021/09/20 12:09:53;;;;;;;143.88;136.77;;;17.90;99.90;;;;;;5063113;28;20200;-74
2021/09/20 12:12:20;;;;;;;108.88;103.53;;;18.00;99.90;;;;;;5076356;28;20188;-74
2021/09/20 12:14:55;;;;;;;143.65;136.50;;;18.00;99.90;;;;;;5071335;28;20209;-75
2021/09/20 12:17:23;;;;;;;129.75;123.47;;;18.00;99.90;;;;;;5078345;28;20263;-74
2021/09/20 12:19:57;;;;;;;119.97;114.03;;;18.00;99.90;;;;;;5065896;28;20208;-74
2021/09/20 12:22:39;;;;;;;124.03;117.93;;;18.00;99.90;;;;;;5081220;28;20296;-74
2021/09/20 12:25:38;;;;;;;130.90;124.55;;;17.90;99.90;;;;;;5072746;28;20255;-75